sensor_id;sensor_type;location;lat;lon;timestamp;temperature;humidity
26182;DHT22;13927;51.534;11.866;2023-01-16T00:01:26;5.00;99.90
26182;DHT22;13927;51.534;11.866;2023-01-16T00:03:55;5.00;99.90
26182;DHT22;13927;51.534;11.866;2023-01-16T00:06:21;5.00;99.90
26182;DHT22;13927;51.534;11.866;2023-01-16T00:08:46;5.00;99.90
26182;DHT22;13927;51.534;11.866;2023-01-16T00:11:14;5.00;99.90
26182;DHT22;13927;51.534;11.866;2023-01-16T00:13:40;5.00;99.90
26182;DHT22;13927;51.534;11.866;2023-01-16T00:16:06;5.10;99.90
26182;DHT22;13927;51.534;11.866;2023-01-16T00:18:32;5.10;99.90
26182;DHT22;13927;51.534;11.866;2023-01-16T00:20:59;5.10;99.90
26182;DHT22;13927;51.534;11.866;2023-01-16T00:23:24;5.10;99.90
26182;DHT22;13927;51.534;11.866;2023-01-16T00:25:51;5.10;99.90
26182;DHT22;13927;51.534;11.866;2023-01-16T00:28:17;5.00;99.90
26182;DHT22;13927;51.534;11.866;2023-01-16T00:30:44;4.90;99.90
26182;DHT22;13927;51.534;11.866;2023-01-16T00:33:10;4.90;99.90
26182;DHT22;13927;51.534;11.866;2023-01-16T00:35:36;4.90;99.90
26182;DHT22;13927;51.534;11.866;2023-01-16T00:38:01;4.80;99.90
26182;DHT22;13927;51.534;11.866;2023-01-16T00:40:31;4.80;99.90
26182;DHT22;13927;51.534;11.866;2023-01-16T00:42:57;4.70;99.90
26182;DHT22;13927;51.534;11.866;2023-01-16T00:45:24;4.70;99.90
26182;DHT22;13927;51.534;11.866;2023-01-16T00:47:49;4.70;99.90
26182;DHT22;13927;51.534;11.866;2023-01-16T00:50:18;4.60;99.90
26182;DHT22;13927;51.534;11.866;2023-01-16T00:52:47;4.60;99.90
26182;DHT22;13927;51.534;11.866;2023-01-16T00:55:12;4.60;99.90
26182;DHT22;13927;51.534;11.866;2023-01-16T00:57:38;4.60;99.90
26182;DHT22;13927;51.534;11.866;2023-01-16T01:00:04;4.60;99.90
26182;DHT22;13927;51.534;11.866;2023-01-16T01:02:31;4.50;99.90
26182;DHT22;13927;51.534;11.866;2023-01-16T01:04:57;4.50;99.90
26182;DHT22;13927;51.534;11.866;2023-01-16T01:07:22;4.40;99.90
26182;DHT22;13927;51.534;11.866;2023-01-16T01:09:48;4.40;99.90
26182;DHT22;13927;51.534;11.866;2023-01-16T01:12:14;4.40;99.90
26182;DHT22;13927;51.534;11.866;2023-01-16T01:14:41;4.40;99.90
26182;DHT22;13927;51.534;11.866;2023-01-16T01:17:06;4.50;99.90
26182;DHT22;13927;51.534;11.866;2023-01-16T01:19:32;4.50;99.90
26182;DHT22;13927;51.534;11.866;2023-01-16T01:21:58;4.60;99.90
26182;DHT22;13927;51.534;11.866;2023-01-16T01:24:23;4.60;99.90
26182;DHT22;13927;51.534;11.866;2023-01-16T01:26:49;4.60;99.90
26182;DHT22;13927;51.534;11.866;2023-01-16T01:29:15;4.60;99.90
26182;DHT22;13927;51.534;11.866;2023-01-16T01:31:40;4.60;99.90
26182;DHT22;13927;51.534;11.866;2023-01-16T01:34:06;4.60;99.90
26182;DHT22;13927;51.534;11.866;2023-01-16T01:36:33;4.70;99.90
26182;DHT22;13927;51.534;11.866;2023-01-16T01:38:59;4.70;99.90
26182;DHT22;13927;51.534;11.866;2023-01-16T01:41:25;4.70;99.90
26182;DHT22;13927;51.534;11.866;2023-01-16T01:43:53;4.80;99.90
26182;DHT22;13927;51.534;11.866;2023-01-16T01:46:42;4.80;99.90
26182;DHT22;13927;51.534;11.866;2023-01-16T01:49:36;4.70;99.90
26182;DHT22;13927;51.534;11.866;2023-01-16T01:52:03;4.60;99.90
26182;DHT22;13927;51.534;11.866;2023-01-16T01:54:38;4.50;99.90
26182;DHT22;13927;51.534;11.866;2023-01-16T01:57:45;4.50;99.90
26182;DHT22;13927;51.534;11.866;2023-01-16T02:00:18;4.40;99.90
26182;DHT22;13927;51.534;11.866;2023-01-16T02:02:51;4.40;99.90
26182;DHT22;13927;51.534;11.866;2023-01-16T02:05:30;4.40;99.90
26182;DHT22;13927;51.534;11.866;2023-01-16T02:07:58;4.40;99.90
26182;DHT22;13927;51.534;11.866;2023-01-16T02:13:05;4.30;99.90
26182;DHT22;13927;51.534;11.866;2023-01-16T02:15:30;4.20;99.90
26182;DHT22;13927;51.534;11.866;2023-01-16T02:17:56;4.20;99.90
26182;DHT22;13927;51.534;11.866;2023-01-16T02:21:05;4.10;99.90
26182;DHT22;13927;51.534;11.866;2023-01-16T02:33:48;3.90;99.90
26182;DHT22;13927;51.534;11.866;2023-01-16T02:39:43;3.80;99.90
26182;DHT22;13927;51.534;11.866;2023-01-16T02:42:17;3.90;99.90
26182;DHT22;13927;51.534;11.866;2023-01-16T02:48:08;3.90;99.90
26182;DHT22;13927;51.534;11.866;2023-01-16T02:51:06;4.00;99.90
26182;DHT22;13927;51.534;11.866;2023-01-16T02:53:47;4.00;99.90
26182;DHT22;13927;51.534;11.866;2023-01-16T02:56:24;4.00;99.90
26182;DHT22;13927;51.534;11.866;2023-01-16T02:58:59;4.00;99.90
26182;DHT22;13927;51.534;11.866;2023-01-16T03:01:25;4.10;99.90
26182;DHT22;13927;51.534;11.866;2023-01-16T03:09:44;4.10;99.90
26182;DHT22;13927;51.534;11.866;2023-01-16T03:12:33;4.10;99.90
26182;DHT22;13927;51.534;11.866;2023-01-16T03:15:45;4.00;99.90
26182;DHT22;13927;51.534;11.866;2023-01-16T03:20:55;4.00;99.90
26182;DHT22;13927;51.534;11.866;2023-01-16T03:23:50;3.90;99.90
26182;DHT22;13927;51.534;11.866;2023-01-16T03:26:45;3.90;99.90
26182;DHT22;13927;51.534;11.866;2023-01-16T03:32:04;3.90;99.90
26182;DHT22;13927;51.534;11.866;2023-01-16T03:34:46;3.90;99.90
26182;DHT22;13927;51.534;11.866;2023-01-16T03:38:07;3.90;99.90
26182;DHT22;13927;51.534;11.866;2023-01-16T03:40:27;3.90;99.90
26182;DHT22;13927;51.534;11.866;2023-01-16T03:43:43;3.90;99.90
26182;DHT22;13927;51.534;11.866;2023-01-16T03:46:18;3.90;99.90
26182;DHT22;13927;51.534;11.866;2023-01-16T03:48:51;3.90;99.90
26182;DHT22;13927;51.534;11.866;2023-01-16T03:51:32;3.90;99.90
26182;DHT22;13927;51.534;11.866;2023-01-16T03:54:38;3.90;99.90
26182;DHT22;13927;51.534;11.866;2023-01-16T03:57:33;3.90;99.90
26182;DHT22;13927;51.534;11.866;2023-01-16T04:00:03;3.90;99.90
26182;DHT22;13927;51.534;11.866;2023-01-16T04:02:51;3.90;99.90
26182;DHT22;13927;51.534;11.866;2023-01-16T04:05:25;3.90;99.90
26182;DHT22;13927;51.534;11.866;2023-01-16T04:08:15;3.90;99.90
26182;DHT22;13927;51.534;11.866;2023-01-16T04:10:46;3.90;99.90
26182;DHT22;13927;51.534;11.866;2023-01-16T04:13:15;3.90;99.90
26182;DHT22;13927;51.534;11.866;2023-01-16T04:15:50;3.90;99.90
26182;DHT22;13927;51.534;11.866;2023-01-16T04:18:19;3.90;99.90
26182;DHT22;13927;51.534;11.866;2023-01-16T04:20:48;3.90;99.90
26182;DHT22;13927;51.534;11.866;2023-01-16T04:23:17;4.00;99.90
26182;DHT22;13927;51.534;11.866;2023-01-16T04:25:44;4.00;99.90
26182;DHT22;13927;51.534;11.866;2023-01-16T04:28:10;3.90;99.90
26182;DHT22;13927;51.534;11.866;2023-01-16T04:30:36;3.90;99.90
26182;DHT22;13927;51.534;11.866;2023-01-16T04:33:05;3.90;99.90
26182;DHT22;13927;51.534;11.866;2023-01-16T04:35:32;3.90;99.90
26182;DHT22;13927;51.534;11.866;2023-01-16T04:37:58;3.90;99.90
26182;DHT22;13927;51.534;11.866;2023-01-16T04:40:24;3.90;99.90
26182;DHT22;13927;51.534;11.866;2023-01-16T04:42:50;3.90;99.90
26182;DHT22;13927;51.534;11.866;2023-01-16T04:45:16;3.80;99.90
26182;DHT22;13927;51.534;11.866;2023-01-16T04:47:46;3.80;99.90
26182;DHT22;13927;51.534;11.866;2023-01-16T04:50:12;3.80;99.90
26182;DHT22;13927;51.534;11.866;2023-01-16T04:52:38;3.70;99.90
26182;DHT22;13927;51.534;11.866;2023-01-16T04:55:04;3.70;99.90
26182;DHT22;13927;51.534;11.866;2023-01-16T04:57:30;3.70;99.90
26182;DHT22;13927;51.534;11.866;2023-01-16T04:59:55;3.70;99.90
26182;DHT22;13927;51.534;11.866;2023-01-16T05:02:21;3.70;99.90
26182;DHT22;13927;51.534;11.866;2023-01-16T05:04:47;3.70;99.90
26182;DHT22;13927;51.534;11.866;2023-01-16T05:07:12;3.80;99.90
26182;DHT22;13927;51.534;11.866;2023-01-16T05:09:38;3.70;99.90
26182;DHT22;13927;51.534;11.866;2023-01-16T05:12:04;3.70;99.90
26182;DHT22;13927;51.534;11.866;2023-01-16T05:14:29;3.70;99.90
26182;DHT22;13927;51.534;11.866;2023-01-16T05:16:55;3.70;99.90
26182;DHT22;13927;51.534;11.866;2023-01-16T05:19:21;3.70;99.90
26182;DHT22;13927;51.534;11.866;2023-01-16T05:21:47;3.80;99.90
26182;DHT22;13927;51.534;11.866;2023-01-16T05:24:12;3.80;99.90
26182;DHT22;13927;51.534;11.866;2023-01-16T05:26:38;3.80;99.90
26182;DHT22;13927;51.534;11.866;2023-01-16T05:29:04;3.90;99.90
26182;DHT22;13927;51.534;11.866;2023-01-16T05:31:29;3.90;99.90
26182;DHT22;13927;51.534;11.866;2023-01-16T05:33:55;4.00;99.90
26182;DHT22;13927;51.534;11.866;2023-01-16T05:36:21;4.00;99.90
26182;DHT22;13927;51.534;11.866;2023-01-16T05:38:47;4.00;99.90
26182;DHT22;13927;51.534;11.866;2023-01-16T05:41:12;3.90;99.90
26182;DHT22;13927;51.534;11.866;2023-01-16T05:43:38;3.90;99.90
26182;DHT22;13927;51.534;11.866;2023-01-16T05:46:04;3.80;99.90
26182;DHT22;13927;51.534;11.866;2023-01-16T05:48:30;3.80;99.90
26182;DHT22;13927;51.534;11.866;2023-01-16T05:50:57;3.80;99.90
26182;DHT22;13927;51.534;11.866;2023-01-16T05:53:25;3.80;99.90
26182;DHT22;13927;51.534;11.866;2023-01-16T05:55:53;3.80;99.90
26182;DHT22;13927;51.534;11.866;2023-01-16T05:58:19;3.70;99.90
26182;DHT22;13927;51.534;11.866;2023-01-16T06:00:45;3.70;99.90
26182;DHT22;13927;51.534;11.866;2023-01-16T06:03:11;3.70;99.90
26182;DHT22;13927;51.534;11.866;2023-01-16T06:05:36;3.70;99.90
26182;DHT22;13927;51.534;11.866;2023-01-16T06:08:03;3.70;99.90
26182;DHT22;13927;51.534;11.866;2023-01-16T06:10:30;3.70;99.90
26182;DHT22;13927;51.534;11.866;2023-01-16T06:12:55;3.70;99.90
26182;DHT22;13927;51.534;11.866;2023-01-16T06:15:21;3.70;99.90
26182;DHT22;13927;51.534;11.866;2023-01-16T06:17:47;3.70;99.90
26182;DHT22;13927;51.534;11.866;2023-01-16T06:20:12;3.70;99.90
26182;DHT22;13927;51.534;11.866;2023-01-16T06:22:38;3.60;99.90
26182;DHT22;13927;51.534;11.866;2023-01-16T06:25:05;3.60;99.90
26182;DHT22;13927;51.534;11.866;2023-01-16T06:27:30;3.60;99.90
26182;DHT22;13927;51.534;11.866;2023-01-16T06:29:57;3.60;99.90
26182;DHT22;13927;51.534;11.866;2023-01-16T06:32:23;3.60;99.90
26182;DHT22;13927;51.534;11.866;2023-01-16T06:34:49;3.50;99.90
26182;DHT22;13927;51.534;11.866;2023-01-16T06:37:14;3.50;99.90
26182;DHT22;13927;51.534;11.866;2023-01-16T06:39:40;3.50;99.90
26182;DHT22;13927;51.534;11.866;2023-01-16T06:42:06;3.40;99.90
26182;DHT22;13927;51.534;11.866;2023-01-16T06:44:32;3.30;99.90
26182;DHT22;13927;51.534;11.866;2023-01-16T06:46:59;3.30;99.90
26182;DHT22;13927;51.534;11.866;2023-01-16T06:49:25;3.30;99.90
26182;DHT22;13927;51.534;11.866;2023-01-16T06:51:51;3.30;99.90
26182;DHT22;13927;51.534;11.866;2023-01-16T06:54:17;3.30;99.90
26182;DHT22;13927;51.534;11.866;2023-01-16T06:56:42;3.30;99.90
26182;DHT22;13927;51.534;11.866;2023-01-16T06:59:08;3.30;99.90
26182;DHT22;13927;51.534;11.866;2023-01-16T07:01:34;3.30;99.90
26182;DHT22;13927;51.534;11.866;2023-01-16T07:04:00;3.30;99.90
26182;DHT22;13927;51.534;11.866;2023-01-16T07:06:26;3.20;99.90
26182;DHT22;13927;51.534;11.866;2023-01-16T07:08:51;3.20;99.90
26182;DHT22;13927;51.534;11.866;2023-01-16T07:11:18;3.20;99.90
26182;DHT22;13927;51.534;11.866;2023-01-16T07:13:44;3.20;99.90
26182;DHT22;13927;51.534;11.866;2023-01-16T07:16:14;3.20;99.90
26182;DHT22;13927;51.534;11.866;2023-01-16T07:18:58;3.20;99.90
26182;DHT22;13927;51.534;11.866;2023-01-16T07:21:45;3.10;99.90
26182;DHT22;13927;51.534;11.866;2023-01-16T07:24:34;3.20;99.90
26182;DHT22;13927;51.534;11.866;2023-01-16T07:27:04;3.10;99.90
26182;DHT22;13927;51.534;11.866;2023-01-16T07:29:32;3.10;99.90
26182;DHT22;13927;51.534;11.866;2023-01-16T07:32:00;3.10;99.90
26182;DHT22;13927;51.534;11.866;2023-01-16T07:34:27;3.00;99.90
26182;DHT22;13927;51.534;11.866;2023-01-16T07:36:53;3.00;99.90
26182;DHT22;13927;51.534;11.866;2023-01-16T07:39:18;3.00;99.90
26182;DHT22;13927;51.534;11.866;2023-01-16T07:41:44;3.10;99.90
26182;DHT22;13927;51.534;11.866;2023-01-16T07:44:12;3.10;99.90
26182;DHT22;13927;51.534;11.866;2023-01-16T07:46:37;3.20;99.90
26182;DHT22;13927;51.534;11.866;2023-01-16T07:49:03;3.30;99.90
26182;DHT22;13927;51.534;11.866;2023-01-16T07:51:29;3.30;99.90
26182;DHT22;13927;51.534;11.866;2023-01-16T07:53:55;3.40;99.90
26182;DHT22;13927;51.534;11.866;2023-01-16T07:56:21;3.50;99.90
26182;DHT22;13927;51.534;11.866;2023-01-16T07:58:46;3.50;99.90
26182;DHT22;13927;51.534;11.866;2023-01-16T08:01:14;3.70;99.90
26182;DHT22;13927;51.534;11.866;2023-01-16T08:03:40;3.70;99.90
26182;DHT22;13927;51.534;11.866;2023-01-16T08:06:06;3.80;99.90
26182;DHT22;13927;51.534;11.866;2023-01-16T08:08:32;3.90;99.90
26182;DHT22;13927;51.534;11.866;2023-01-16T08:11:00;3.90;99.90
26182;DHT22;13927;51.534;11.866;2023-01-16T08:13:45;4.00;99.90
26182;DHT22;13927;51.534;11.866;2023-01-16T08:16:11;4.00;99.90
26182;DHT22;13927;51.534;11.866;2023-01-16T08:18:37;4.10;99.90
26182;DHT22;13927;51.534;11.866;2023-01-16T08:21:03;4.20;99.90
26182;DHT22;13927;51.534;11.866;2023-01-16T08:23:28;4.30;99.90
26182;DHT22;13927;51.534;11.866;2023-01-16T08:25:54;4.40;99.90
26182;DHT22;13927;51.534;11.866;2023-01-16T08:28:20;4.60;99.90
26182;DHT22;13927;51.534;11.866;2023-01-16T08:30:45;4.70;99.90
26182;DHT22;13927;51.534;11.866;2023-01-16T08:33:11;4.80;99.90
26182;DHT22;13927;51.534;11.866;2023-01-16T08:35:37;5.00;99.90
26182;DHT22;13927;51.534;11.866;2023-01-16T08:38:03;5.20;99.90
26182;DHT22;13927;51.534;11.866;2023-01-16T08:40:28;5.40;99.90
26182;DHT22;13927;51.534;11.866;2023-01-16T08:42:55;5.40;99.90
26182;DHT22;13927;51.534;11.866;2023-01-16T08:45:39;5.50;99.90
26182;DHT22;13927;51.534;11.866;2023-01-16T08:48:24;5.60;99.90
26182;DHT22;13927;51.534;11.866;2023-01-16T08:51:16;5.70;99.90
26182;DHT22;13927;51.534;11.866;2023-01-16T08:53:51;5.70;99.90
26182;DHT22;13927;51.534;11.866;2023-01-16T08:56:19;5.50;99.90
26182;DHT22;13927;51.534;11.866;2023-01-16T08:58:45;5.50;99.90
26182;DHT22;13927;51.534;11.866;2023-01-16T09:01:11;5.30;99.90
26182;DHT22;13927;51.534;11.866;2023-01-16T09:03:37;5.40;99.90
26182;DHT22;13927;51.534;11.866;2023-01-16T09:06:03;5.20;99.90
26182;DHT22;13927;51.534;11.866;2023-01-16T09:08:29;5.20;99.90
26182;DHT22;13927;51.534;11.866;2023-01-16T09:10:54;5.20;99.90
26182;DHT22;13927;51.534;11.866;2023-01-16T09:13:43;5.20;99.90
26182;DHT22;13927;51.534;11.866;2023-01-16T09:16:24;5.30;99.90
26182;DHT22;13927;51.534;11.866;2023-01-16T09:18:51;5.40;99.90
26182;DHT22;13927;51.534;11.866;2023-01-16T09:21:19;5.50;99.90
26182;DHT22;13927;51.534;11.866;2023-01-16T09:23:46;5.50;99.90
26182;DHT22;13927;51.534;11.866;2023-01-16T09:26:11;5.50;99.90
26182;DHT22;13927;51.534;11.866;2023-01-16T09:28:37;5.60;99.90
26182;DHT22;13927;51.534;11.866;2023-01-16T09:31:03;5.70;99.90
26182;DHT22;13927;51.534;11.866;2023-01-16T09:33:29;5.60;99.90
26182;DHT22;13927;51.534;11.866;2023-01-16T09:35:54;5.30;99.90
26182;DHT22;13927;51.534;11.866;2023-01-16T09:38:20;5.10;99.90
26182;DHT22;13927;51.534;11.866;2023-01-16T09:40:47;4.90;99.90
26182;DHT22;13927;51.534;11.866;2023-01-16T09:46:22;5.00;99.90
26182;DHT22;13927;51.534;11.866;2023-01-16T09:49:01;5.10;99.90
26182;DHT22;13927;51.534;11.866;2023-01-16T09:51:42;5.10;99.90
26182;DHT22;13927;51.534;11.866;2023-01-16T09:54:37;5.30;99.90
26182;DHT22;13927;51.534;11.866;2023-01-16T09:57:26;5.70;99.90
26182;DHT22;13927;51.534;11.866;2023-01-16T10:00:14;5.60;99.90
26182;DHT22;13927;51.534;11.866;2023-01-16T10:02:42;5.80;99.90
26182;DHT22;13927;51.534;11.866;2023-01-16T10:05:09;6.00;99.90
26182;DHT22;13927;51.534;11.866;2023-01-16T10:10:46;6.20;99.90
26182;DHT22;13927;51.534;11.866;2023-01-16T10:19:19;6.50;99.90
26182;DHT22;13927;51.534;11.866;2023-01-16T10:27:49;7.00;99.90
26182;DHT22;13927;51.534;11.866;2023-01-16T10:30:28;7.20;99.90
26182;DHT22;13927;51.534;11.866;2023-01-16T10:32:58;7.30;99.90
26182;DHT22;13927;51.534;11.866;2023-01-16T10:35:38;7.40;99.90
26182;DHT22;13927;51.534;11.866;2023-01-16T10:38:30;7.20;99.90
26182;DHT22;13927;51.534;11.866;2023-01-16T10:41:02;7.10;99.90
26182;DHT22;13927;51.534;11.866;2023-01-16T10:43:48;7.20;99.90
26182;DHT22;13927;51.534;11.866;2023-01-16T10:46:34;7.30;99.90
26182;DHT22;13927;51.534;11.866;2023-01-16T10:49:19;7.20;99.90
26182;DHT22;13927;51.534;11.866;2023-01-16T10:51:57;7.30;99.90
26182;DHT22;13927;51.534;11.866;2023-01-16T10:54:24;7.30;99.90
26182;DHT22;13927;51.534;11.866;2023-01-16T10:56:50;7.20;99.90
26182;DHT22;13927;51.534;11.866;2023-01-16T10:59:16;7.20;99.90
26182;DHT22;13927;51.534;11.866;2023-01-16T11:01:44;7.30;99.90
26182;DHT22;13927;51.534;11.866;2023-01-16T11:04:11;7.20;99.90
26182;DHT22;13927;51.534;11.866;2023-01-16T11:06:38;7.10;99.90
26182;DHT22;13927;51.534;11.866;2023-01-16T11:09:17;7.20;99.90
26182;DHT22;13927;51.534;11.866;2023-01-16T11:11:45;7.10;99.90
26182;DHT22;13927;51.534;11.866;2023-01-16T11:14:39;7.20;99.90
26182;DHT22;13927;51.534;11.866;2023-01-16T11:17:33;7.40;99.90
26182;DHT22;13927;51.534;11.866;2023-01-16T11:20:30;7.80;99.90
26182;DHT22;13927;51.534;11.866;2023-01-16T11:23:21;8.00;99.90
26182;DHT22;13927;51.534;11.866;2023-01-16T11:25:48;8.00;99.90
26182;DHT22;13927;51.534;11.866;2023-01-16T11:28:35;7.90;99.90
26182;DHT22;13927;51.534;11.866;2023-01-16T11:31:10;7.90;99.90
26182;DHT22;13927;51.534;11.866;2023-01-16T11:33:50;7.90;99.90
26182;DHT22;13927;51.534;11.866;2023-01-16T11:36:23;8.00;99.90
26182;DHT22;13927;51.534;11.866;2023-01-16T11:38:50;8.10;99.90
26182;DHT22;13927;51.534;11.866;2023-01-16T11:41:23;8.20;99.90
26182;DHT22;13927;51.534;11.866;2023-01-16T11:46:59;7.70;99.90
26182;DHT22;13927;51.534;11.866;2023-01-16T11:49:30;7.40;99.90
26182;DHT22;13927;51.534;11.866;2023-01-16T11:52:03;7.30;99.90
26182;DHT22;13927;51.534;11.866;2023-01-16T11:54:31;7.50;99.90
26182;DHT22;13927;51.534;11.866;2023-01-16T12:00:06;8.00;99.90
26182;DHT22;13927;51.534;11.866;2023-01-16T12:13:57;7.70;99.90
26182;DHT22;13927;51.534;11.866;2023-01-16T12:16:57;7.60;99.90
26182;DHT22;13927;51.534;11.866;2023-01-16T12:19:55;7.40;99.90
26182;DHT22;13927;51.534;11.866;2023-01-16T12:37:50;7.70;99.90
26182;DHT22;13927;51.534;11.866;2023-01-16T12:43:17;7.70;99.90
26182;DHT22;13927;51.534;11.866;2023-01-16T12:46:03;7.70;99.90
26182;DHT22;13927;51.534;11.866;2023-01-16T12:48:56;7.60;99.90
26182;DHT22;13927;51.534;11.866;2023-01-16T12:54:27;7.40;99.90
26182;DHT22;13927;51.534;11.866;2023-01-16T13:03:02;7.00;99.90
26182;DHT22;13927;51.534;11.866;2023-01-16T13:05:37;7.00;99.90
26182;DHT22;13927;51.534;11.866;2023-01-16T13:08:11;7.00;99.90
26182;DHT22;13927;51.534;11.866;2023-01-16T13:10:51;7.00;99.90
26182;DHT22;13927;51.534;11.866;2023-01-16T13:13:50;7.00;99.90
26182;DHT22;13927;51.534;11.866;2023-01-16T13:17:04;7.00;99.90
26182;DHT22;13927;51.534;11.866;2023-01-16T13:19:36;7.00;99.90
26182;DHT22;13927;51.534;11.866;2023-01-16T13:25:06;6.90;99.90
26182;DHT22;13927;51.534;11.866;2023-01-16T13:27:41;6.90;99.90
26182;DHT22;13927;51.534;11.866;2023-01-16T13:30:16;6.90;99.90
26182;DHT22;13927;51.534;11.866;2023-01-16T13:32:54;6.90;99.90
26182;DHT22;13927;51.534;11.866;2023-01-16T13:35:58;6.90;99.90
26182;DHT22;13927;51.534;11.866;2023-01-16T13:41:40;6.80;99.90
26182;DHT22;13927;51.534;11.866;2023-01-16T13:44:15;6.90;99.90
26182;DHT22;13927;51.534;11.866;2023-01-16T13:47:10;6.80;99.90
26182;DHT22;13927;51.534;11.866;2023-01-16T13:49:41;6.90;99.90
26182;DHT22;13927;51.534;11.866;2023-01-16T13:52:19;6.90;99.90
26182;DHT22;13927;51.534;11.866;2023-01-16T13:54:50;6.90;99.90
26182;DHT22;13927;51.534;11.866;2023-01-16T13:57:21;7.00;99.90
26182;DHT22;13927;51.534;11.866;2023-01-16T13:59:48;7.00;99.90
26182;DHT22;13927;51.534;11.866;2023-01-16T14:02:27;6.90;99.90
26182;DHT22;13927;51.534;11.866;2023-01-16T14:06:14;6.90;99.90
26182;DHT22;13927;51.534;11.866;2023-01-16T14:08:28;6.80;99.90
26182;DHT22;13927;51.534;11.866;2023-01-16T14:14:31;6.80;99.90
26182;DHT22;13927;51.534;11.866;2023-01-16T14:26:21;6.70;99.90
26182;DHT22;13927;51.534;11.866;2023-01-16T14:28:54;6.70;99.90
26182;DHT22;13927;51.534;11.866;2023-01-16T14:34:16;6.80;99.90
26182;DHT22;13927;51.534;11.866;2023-01-16T14:36:49;7.00;99.90
26182;DHT22;13927;51.534;11.866;2023-01-16T14:39:31;7.30;99.90
26182;DHT22;13927;51.534;11.866;2023-01-16T14:42:25;7.40;99.90
26182;DHT22;13927;51.534;11.866;2023-01-16T14:45:27;7.50;99.90
26182;DHT22;13927;51.534;11.866;2023-01-16T14:54:07;7.30;99.90
26182;DHT22;13927;51.534;11.866;2023-01-16T14:57:06;7.20;99.90
26182;DHT22;13927;51.534;11.866;2023-01-16T14:59:44;7.20;99.90
26182;DHT22;13927;51.534;11.866;2023-01-16T15:02:25;7.10;99.90
26182;DHT22;13927;51.534;11.866;2023-01-16T15:10:13;6.90;99.90
26182;DHT22;13927;51.534;11.866;2023-01-16T15:12:50;6.80;99.90
26182;DHT22;13927;51.534;11.866;2023-01-16T15:15:25;6.80;99.90
26182;DHT22;13927;51.534;11.866;2023-01-16T15:17:55;6.70;99.90
26182;DHT22;13927;51.534;11.866;2023-01-16T15:20:43;6.70;99.90
26182;DHT22;13927;51.534;11.866;2023-01-16T15:23:33;6.70;99.90
26182;DHT22;13927;51.534;11.866;2023-01-16T15:31:19;6.60;99.90
26182;DHT22;13927;51.534;11.866;2023-01-16T15:33:59;6.60;99.90
26182;DHT22;13927;51.534;11.866;2023-01-16T15:36:34;6.50;99.90
26182;DHT22;13927;51.534;11.866;2023-01-16T15:39:21;6.50;99.90
26182;DHT22;13927;51.534;11.866;2023-01-16T15:45:26;6.30;99.90
26182;DHT22;13927;51.534;11.866;2023-01-16T15:48:30;6.30;99.90
26182;DHT22;13927;51.534;11.866;2023-01-16T15:51:10;6.30;99.90
26182;DHT22;13927;51.534;11.866;2023-01-16T15:53:56;6.20;99.90
26182;DHT22;13927;51.534;11.866;2023-01-16T15:56:38;6.20;99.90
26182;DHT22;13927;51.534;11.866;2023-01-16T15:59:29;6.20;99.90
26182;DHT22;13927;51.534;11.866;2023-01-16T16:02:20;6.10;99.90
26182;DHT22;13927;51.534;11.866;2023-01-16T16:04:51;6.10;99.90
26182;DHT22;13927;51.534;11.866;2023-01-16T16:07:19;6.10;99.90
26182;DHT22;13927;51.534;11.866;2023-01-16T16:09:48;6.00;99.90
26182;DHT22;13927;51.534;11.866;2023-01-16T16:12:20;6.00;99.90
26182;DHT22;13927;51.534;11.866;2023-01-16T16:14:46;6.00;99.90
26182;DHT22;13927;51.534;11.866;2023-01-16T16:17:34;6.00;99.90
26182;DHT22;13927;51.534;11.866;2023-01-16T16:20:32;6.00;99.90
26182;DHT22;13927;51.534;11.866;2023-01-16T16:23:20;6.10;99.90
26182;DHT22;13927;51.534;11.866;2023-01-16T16:26:00;6.10;99.90
26182;DHT22;13927;51.534;11.866;2023-01-16T16:31:06;6.00;99.90
26182;DHT22;13927;51.534;11.866;2023-01-16T16:33:40;6.00;99.90
26182;DHT22;13927;51.534;11.866;2023-01-16T16:36:17;6.00;99.90
26182;DHT22;13927;51.534;11.866;2023-01-16T16:38:46;6.00;99.90
26182;DHT22;13927;51.534;11.866;2023-01-16T16:43:46;6.10;99.90
26182;DHT22;13927;51.534;11.866;2023-01-16T16:51:33;6.10;99.90
26182;DHT22;13927;51.534;11.866;2023-01-16T16:54:04;6.10;99.90
26182;DHT22;13927;51.534;11.866;2023-01-16T16:56:47;6.10;99.90
26182;DHT22;13927;51.534;11.866;2023-01-16T16:59:18;6.20;99.90
26182;DHT22;13927;51.534;11.866;2023-01-16T17:01:49;6.20;99.90
26182;DHT22;13927;51.534;11.866;2023-01-16T17:04:16;6.20;99.90
26182;DHT22;13927;51.534;11.866;2023-01-16T17:06:44;6.20;99.90
26182;DHT22;13927;51.534;11.866;2023-01-16T17:09:12;6.30;99.90
26182;DHT22;13927;51.534;11.866;2023-01-16T17:11:40;6.30;99.90
26182;DHT22;13927;51.534;11.866;2023-01-16T17:14:06;6.40;99.90
26182;DHT22;13927;51.534;11.866;2023-01-16T17:16:33;6.40;99.90
26182;DHT22;13927;51.534;11.866;2023-01-16T17:19:05;6.40;99.90
26182;DHT22;13927;51.534;11.866;2023-01-16T17:21:31;6.40;99.90
26182;DHT22;13927;51.534;11.866;2023-01-16T17:23:57;6.40;99.90
26182;DHT22;13927;51.534;11.866;2023-01-16T17:26:23;6.40;99.90
26182;DHT22;13927;51.534;11.866;2023-01-16T17:28:48;6.30;99.90
26182;DHT22;13927;51.534;11.866;2023-01-16T17:31:18;6.30;99.90
26182;DHT22;13927;51.534;11.866;2023-01-16T17:33:45;6.30;99.90
26182;DHT22;13927;51.534;11.866;2023-01-16T17:36:21;6.30;99.90
26182;DHT22;13927;51.534;11.866;2023-01-16T17:38:48;6.30;99.90
26182;DHT22;13927;51.534;11.866;2023-01-16T17:41:17;6.20;99.90
26182;DHT22;13927;51.534;11.866;2023-01-16T17:43:50;6.20;99.90
26182;DHT22;13927;51.534;11.866;2023-01-16T17:46:35;6.20;99.90
26182;DHT22;13927;51.534;11.866;2023-01-16T17:49:01;6.20;99.90
26182;DHT22;13927;51.534;11.866;2023-01-16T17:51:26;6.20;99.90
26182;DHT22;13927;51.534;11.866;2023-01-16T17:53:52;6.20;99.90
26182;DHT22;13927;51.534;11.866;2023-01-16T17:56:19;6.20;99.90
26182;DHT22;13927;51.534;11.866;2023-01-16T17:58:46;6.30;99.90
26182;DHT22;13927;51.534;11.866;2023-01-16T18:01:24;6.30;99.90
26182;DHT22;13927;51.534;11.866;2023-01-16T18:03:53;6.30;99.90
26182;DHT22;13927;51.534;11.866;2023-01-16T18:06:43;6.30;99.90
26182;DHT22;13927;51.534;11.866;2023-01-16T18:09:11;6.20;99.90
26182;DHT22;13927;51.534;11.866;2023-01-16T18:11:40;6.30;99.90
26182;DHT22;13927;51.534;11.866;2023-01-16T18:14:25;6.30;99.90
26182;DHT22;13927;51.534;11.866;2023-01-16T18:17:12;6.30;99.90
26182;DHT22;13927;51.534;11.866;2023-01-16T18:19:55;6.30;99.90
26182;DHT22;13927;51.534;11.866;2023-01-16T18:22:31;6.30;99.90
26182;DHT22;13927;51.534;11.866;2023-01-16T18:24:59;6.30;99.90
26182;DHT22;13927;51.534;11.866;2023-01-16T18:27:25;6.30;99.90
26182;DHT22;13927;51.534;11.866;2023-01-16T18:29:52;6.30;99.90
26182;DHT22;13927;51.534;11.866;2023-01-16T18:32:18;6.30;99.90